sensor_id;sensor_type;location;lat;lon;timestamp;P1;durP1;ratioP1;P2;durP2;ratioP2
52480;SDS011;38393;52.404;13.532;2022-08-03T00:01:19;9.35;;;5.38;;
52480;SDS011;38393;52.404;13.532;2022-08-03T00:03:45;7.00;;;5.35;;
52480;SDS011;38393;52.404;13.532;2022-08-03T00:06:11;6.07;;;5.22;;
52480;SDS011;38393;52.404;13.532;2022-08-03T00:08:37;7.30;;;5.00;;
52480;SDS011;38393;52.404;13.532;2022-08-03T00:11:03;9.43;;;5.30;;
52480;SDS011;38393;52.404;13.532;2022-08-03T00:13:30;8.55;;;5.35;;
52480;SDS011;38393;52.404;13.532;2022-08-03T00:15:57;8.40;;;5.63;;
52480;SDS011;38393;52.404;13.532;2022-08-03T00:18:23;8.70;;;5.43;;
52480;SDS011;38393;52.404;13.532;2022-08-03T00:20:48;9.98;;;5.15;;
52480;SDS011;38393;52.404;13.532;2022-08-03T00:23:14;8.65;;;5.55;;
52480;SDS011;38393;52.404;13.532;2022-08-03T00:25:40;8.43;;;5.70;;
52480;SDS011;38393;52.404;13.532;2022-08-03T00:28:06;9.90;;;5.57;;
52480;SDS011;38393;52.404;13.532;2022-08-03T00:30:32;9.57;;;5.50;;
52480;SDS011;38393;52.404;13.532;2022-08-03T00:32:58;8.98;;;5.43;;
52480;SDS011;38393;52.404;13.532;2022-08-03T00:35:24;9.45;;;5.50;;
52480;SDS011;38393;52.404;13.532;2022-08-03T00:37:50;10.30;;;6.05;;
52480;SDS011;38393;52.404;13.532;2022-08-03T00:40:17;11.20;;;5.80;;
52480;SDS011;38393;52.404;13.532;2022-08-03T00:42:45;8.68;;;5.63;;
52480;SDS011;38393;52.404;13.532;2022-08-03T00:45:11;10.27;;;5.10;;
52480;SDS011;38393;52.404;13.532;2022-08-03T00:47:37;14.25;;;5.63;;
52480;SDS011;38393;52.404;13.532;2022-08-03T00:50:03;10.82;;;5.47;;
52480;SDS011;38393;52.404;13.532;2022-08-03T00:52:28;8.52;;;5.50;;
52480;SDS011;38393;52.404;13.532;2022-08-03T00:54:54;9.02;;;5.78;;
52480;SDS011;38393;52.404;13.532;2022-08-03T00:57:21;8.30;;;5.47;;
52480;SDS011;38393;52.404;13.532;2022-08-03T00:59:46;7.20;;;4.93;;
52480;SDS011;38393;52.404;13.532;2022-08-03T01:02:12;10.02;;;6.10;;
52480;SDS011;38393;52.404;13.532;2022-08-03T01:04:38;9.45;;;5.90;;
52480;SDS011;38393;52.404;13.532;2022-08-03T01:12:07;7.30;;;5.57;;
52480;SDS011;38393;52.404;13.532;2022-08-03T01:14:38;6.47;;;5.50;;
52480;SDS011;38393;52.404;13.532;2022-08-03T01:19:48;8.90;;;5.93;;
52480;SDS011;38393;52.404;13.532;2022-08-03T01:24:49;7.82;;;5.70;;
52480;SDS011;38393;52.404;13.532;2022-08-03T01:27:20;9.50;;;5.22;;
52480;SDS011;38393;52.404;13.532;2022-08-03T01:30:05;8.10;;;5.72;;
52480;SDS011;38393;52.404;13.532;2022-08-03T01:32:40;9.25;;;5.38;;
52480;SDS011;38393;52.404;13.532;2022-08-03T01:35:08;7.45;;;5.82;;
52480;SDS011;38393;52.404;13.532;2022-08-03T01:37:39;9.45;;;6.18;;
52480;SDS011;38393;52.404;13.532;2022-08-03T01:40:06;9.07;;;6.10;;
52480;SDS011;38393;52.404;13.532;2022-08-03T01:42:33;7.85;;;5.45;;
52480;SDS011;38393;52.404;13.532;2022-08-03T01:45:01;7.80;;;5.90;;
52480;SDS011;38393;52.404;13.532;2022-08-03T01:47:28;7.32;;;5.50;;
52480;SDS011;38393;52.404;13.532;2022-08-03T01:49:55;7.40;;;5.85;;
52480;SDS011;38393;52.404;13.532;2022-08-03T01:52:22;12.65;;;6.20;;
52480;SDS011;38393;52.404;13.532;2022-08-03T01:54:49;11.05;;;6.30;;
52480;SDS011;38393;52.404;13.532;2022-08-03T01:57:16;8.77;;;5.90;;
52480;SDS011;38393;52.404;13.532;2022-08-03T01:59:43;9.30;;;5.55;;
52480;SDS011;38393;52.404;13.532;2022-08-03T02:02:11;10.35;;;5.88;;
52480;SDS011;38393;52.404;13.532;2022-08-03T02:04:38;7.53;;;5.40;;
52480;SDS011;38393;52.404;13.532;2022-08-03T02:07:05;8.50;;;5.68;;
52480;SDS011;38393;52.404;13.532;2022-08-03T02:09:32;9.68;;;5.85;;
52480;SDS011;38393;52.404;13.532;2022-08-03T02:11:59;10.10;;;5.40;;
52480;SDS011;38393;52.404;13.532;2022-08-03T02:14:25;8.07;;;5.40;;
52480;SDS011;38393;52.404;13.532;2022-08-03T02:16:52;7.47;;;5.32;;
52480;SDS011;38393;52.404;13.532;2022-08-03T02:19:18;8.10;;;5.50;;
52480;SDS011;38393;52.404;13.532;2022-08-03T02:21:45;8.63;;;5.50;;
52480;SDS011;38393;52.404;13.532;2022-08-03T02:24:11;10.25;;;5.65;;
52480;SDS011;38393;52.404;13.532;2022-08-03T02:26:38;9.55;;;5.70;;
52480;SDS011;38393;52.404;13.532;2022-08-03T02:29:05;9.52;;;5.57;;
52480;SDS011;38393;52.404;13.532;2022-08-03T02:31:32;9.13;;;5.43;;
52480;SDS011;38393;52.404;13.532;2022-08-03T02:34:00;9.02;;;5.50;;
52480;SDS011;38393;52.404;13.532;2022-08-03T02:36:28;8.68;;;5.43;;
52480;SDS011;38393;52.404;13.532;2022-08-03T02:38:55;8.98;;;5.57;;
52480;SDS011;38393;52.404;13.532;2022-08-03T02:41:22;8.13;;;5.38;;
52480;SDS011;38393;52.404;13.532;2022-08-03T02:43:50;8.23;;;5.68;;
52480;SDS011;38393;52.404;13.532;2022-08-03T02:46:23;8.35;;;5.63;;
52480;SDS011;38393;52.404;13.532;2022-08-03T02:48:50;7.45;;;5.60;;
52480;SDS011;38393;52.404;13.532;2022-08-03T02:51:17;10.23;;;5.28;;
52480;SDS011;38393;52.404;13.532;2022-08-03T02:53:44;7.55;;;5.45;;
52480;SDS011;38393;52.404;13.532;2022-08-03T02:56:10;8.85;;;5.05;;
52480;SDS011;38393;52.404;13.532;2022-08-03T02:58:38;6.97;;;5.50;;
52480;SDS011;38393;52.404;13.532;2022-08-03T03:01:04;7.32;;;5.88;;
52480;SDS011;38393;52.404;13.532;2022-08-03T03:03:30;10.00;;;5.28;;
52480;SDS011;38393;52.404;13.532;2022-08-03T03:05:56;5.97;;;5.22;;
52480;SDS011;38393;52.404;13.532;2022-08-03T03:08:23;5.90;;;4.93;;
52480;SDS011;38393;52.404;13.532;2022-08-03T03:10:49;8.98;;;5.18;;
52480;SDS011;38393;52.404;13.532;2022-08-03T03:13:16;8.77;;;5.45;;
52480;SDS011;38393;52.404;13.532;2022-08-03T03:15:42;9.52;;;5.35;;
52480;SDS011;38393;52.404;13.532;2022-08-03T03:18:09;8.65;;;5.43;;
52480;SDS011;38393;52.404;13.532;2022-08-03T03:20:35;8.25;;;5.47;;
52480;SDS011;38393;52.404;13.532;2022-08-03T03:23:01;15.55;;;5.50;;
52480;SDS011;38393;52.404;13.532;2022-08-03T03:25:30;8.05;;;5.25;;
52480;SDS011;38393;52.404;13.532;2022-08-03T03:27:57;6.28;;;4.90;;
52480;SDS011;38393;52.404;13.532;2022-08-03T03:30:23;8.00;;;5.30;;
52480;SDS011;38393;52.404;13.532;2022-08-03T03:32:50;7.72;;;5.47;;
52480;SDS011;38393;52.404;13.532;2022-08-03T03:35:16;7.18;;;5.30;;
52480;SDS011;38393;52.404;13.532;2022-08-03T03:37:42;6.63;;;5.28;;
52480;SDS011;38393;52.404;13.532;2022-08-03T03:40:08;8.25;;;5.43;;
52480;SDS011;38393;52.404;13.532;2022-08-03T03:42:34;9.13;;;5.70;;
52480;SDS011;38393;52.404;13.532;2022-08-03T03:45:02;8.95;;;5.53;;
52480;SDS011;38393;52.404;13.532;2022-08-03T03:47:29;7.90;;;5.30;;
52480;SDS011;38393;52.404;13.532;2022-08-03T03:49:55;12.38;;;5.60;;
52480;SDS011;38393;52.404;13.532;2022-08-03T03:52:21;7.63;;;6.00;;
52480;SDS011;38393;52.404;13.532;2022-08-03T03:54:47;7.93;;;5.35;;
52480;SDS011;38393;52.404;13.532;2022-08-03T03:57:13;7.65;;;5.50;;
52480;SDS011;38393;52.404;13.532;2022-08-03T03:59:40;8.13;;;5.38;;
52480;SDS011;38393;52.404;13.532;2022-08-03T04:02:07;8.18;;;5.88;;
52480;SDS011;38393;52.404;13.532;2022-08-03T04:04:34;9.50;;;5.85;;
52480;SDS011;38393;52.404;13.532;2022-08-03T04:07:19;9.10;;;5.35;;
52480;SDS011;38393;52.404;13.532;2022-08-03T04:10:04;7.53;;;6.10;;
52480;SDS011;38393;52.404;13.532;2022-08-03T04:12:53;8.15;;;5.57;;
52480;SDS011;38393;52.404;13.532;2022-08-03T04:15:22;8.43;;;5.78;;
52480;SDS011;38393;52.404;13.532;2022-08-03T04:17:48;11.00;;;6.22;;
52480;SDS011;38393;52.404;13.532;2022-08-03T04:20:15;12.65;;;6.00;;
52480;SDS011;38393;52.404;13.532;2022-08-03T04:22:42;11.15;;;5.95;;
52480;SDS011;38393;52.404;13.532;2022-08-03T04:25:08;12.45;;;6.20;;
52480;SDS011;38393;52.404;13.532;2022-08-03T04:27:35;10.43;;;6.30;;
52480;SDS011;38393;52.404;13.532;2022-08-03T04:30:03;10.77;;;6.05;;
52480;SDS011;38393;52.404;13.532;2022-08-03T04:32:29;10.35;;;6.22;;
52480;SDS011;38393;52.404;13.532;2022-08-03T04:34:55;10.70;;;5.53;;
52480;SDS011;38393;52.404;13.532;2022-08-03T04:37:43;7.70;;;5.50;;
52480;SDS011;38393;52.404;13.532;2022-08-03T04:40:12;13.85;;;5.70;;
52480;SDS011;38393;52.404;13.532;2022-08-03T04:42:38;11.15;;;6.05;;
52480;SDS011;38393;52.404;13.532;2022-08-03T04:45:05;15.80;;;5.90;;
52480;SDS011;38393;52.404;13.532;2022-08-03T04:47:32;12.27;;;5.90;;
52480;SDS011;38393;52.404;13.532;2022-08-03T04:50:02;9.20;;;5.63;;
52480;SDS011;38393;52.404;13.532;2022-08-03T04:52:28;14.18;;;6.20;;
52480;SDS011;38393;52.404;13.532;2022-08-03T04:54:54;9.93;;;6.03;;
52480;SDS011;38393;52.404;13.532;2022-08-03T04:57:21;13.45;;;6.40;;
52480;SDS011;38393;52.404;13.532;2022-08-03T04:59:47;13.07;;;5.80;;
52480;SDS011;38393;52.404;13.532;2022-08-03T05:02:16;12.00;;;6.13;;
52480;SDS011;38393;52.404;13.532;2022-08-03T05:04:42;10.05;;;5.72;;
52480;SDS011;38393;52.404;13.532;2022-08-03T05:07:10;10.60;;;6.32;;
52480;SDS011;38393;52.404;13.532;2022-08-03T05:09:36;19.42;;;6.57;;
52480;SDS011;38393;52.404;13.532;2022-08-03T05:12:02;17.40;;;6.38;;
52480;SDS011;38393;52.404;13.532;2022-08-03T05:14:28;16.77;;;6.38;;
52480;SDS011;38393;52.404;13.532;2022-08-03T05:16:54;8.63;;;6.00;;
52480;SDS011;38393;52.404;13.532;2022-08-03T05:19:20;14.98;;;6.28;;
52480;SDS011;38393;52.404;13.532;2022-08-03T05:21:46;13.63;;;6.30;;
52480;SDS011;38393;52.404;13.532;2022-08-03T05:24:12;10.70;;;6.45;;
52480;SDS011;38393;52.404;13.532;2022-08-03T05:26:38;16.83;;;6.10;;
52480;SDS011;38393;52.404;13.532;2022-08-03T05:29:04;15.88;;;6.40;;
52480;SDS011;38393;52.404;13.532;2022-08-03T05:31:30;19.10;;;6.40;;
52480;SDS011;38393;52.404;13.532;2022-08-03T05:33:56;11.73;;;5.93;;
52480;SDS011;38393;52.404;13.532;2022-08-03T05:36:22;11.18;;;5.60;;
52480;SDS011;38393;52.404;13.532;2022-08-03T05:38:48;15.85;;;5.88;;
52480;SDS011;38393;52.404;13.532;2022-08-03T05:41:14;16.58;;;5.97;;
52480;SDS011;38393;52.404;13.532;2022-08-03T05:43:40;19.55;;;6.38;;
52480;SDS011;38393;52.404;13.532;2022-08-03T05:46:06;14.80;;;5.88;;
52480;SDS011;38393;52.404;13.532;2022-08-03T05:48:32;14.65;;;5.47;;
52480;SDS011;38393;52.404;13.532;2022-08-03T05:50:57;12.18;;;5.90;;
52480;SDS011;38393;52.404;13.532;2022-08-03T05:53:23;12.10;;;5.47;;
52480;SDS011;38393;52.404;13.532;2022-08-03T05:55:50;10.48;;;5.40;;
52480;SDS011;38393;52.404;13.532;2022-08-03T05:58:16;8.60;;;5.47;;
52480;SDS011;38393;52.404;13.532;2022-08-03T06:00:42;10.15;;;5.28;;
52480;SDS011;38393;52.404;13.532;2022-08-03T06:03:08;9.82;;;5.90;;
52480;SDS011;38393;52.404;13.532;2022-08-03T06:05:34;10.40;;;5.53;;
52480;SDS011;38393;52.404;13.532;2022-08-03T06:08:00;12.15;;;5.45;;
52480;SDS011;38393;52.404;13.532;2022-08-03T06:10:26;12.63;;;5.90;;
52480;SDS011;38393;52.404;13.532;2022-08-03T06:12:52;9.60;;;5.78;;
52480;SDS011;38393;52.404;13.532;2022-08-03T06:15:18;11.05;;;5.50;;
52480;SDS011;38393;52.404;13.532;2022-08-03T06:17:45;10.60;;;5.75;;
52480;SDS011;38393;52.404;13.532;2022-08-03T06:20:11;10.18;;;5.38;;
52480;SDS011;38393;52.404;13.532;2022-08-03T06:22:37;9.93;;;5.78;;
52480;SDS011;38393;52.404;13.532;2022-08-03T06:25:03;11.45;;;5.35;;
52480;SDS011;38393;52.404;13.532;2022-08-03T06:27:30;12.27;;;5.28;;
52480;SDS011;38393;52.404;13.532;2022-08-03T06:29:56;9.23;;;4.82;;
52480;SDS011;38393;52.404;13.532;2022-08-03T06:32:21;13.55;;;4.32;;
52480;SDS011;38393;52.404;13.532;2022-08-03T06:34:47;9.73;;;4.20;;
52480;SDS011;38393;52.404;13.532;2022-08-03T06:37:13;4.60;;;3.90;;
52480;SDS011;38393;52.404;13.532;2022-08-03T06:39:39;11.90;;;4.18;;
52480;SDS011;38393;52.404;13.532;2022-08-03T06:42:05;10.48;;;4.40;;
52480;SDS011;38393;52.404;13.532;2022-08-03T06:44:31;7.10;;;3.97;;
52480;SDS011;38393;52.404;13.532;2022-08-03T06:46:57;5.63;;;4.32;;
52480;SDS011;38393;52.404;13.532;2022-08-03T06:49:23;7.60;;;4.22;;
52480;SDS011;38393;52.404;13.532;2022-08-03T06:51:49;12.13;;;4.60;;
52480;SDS011;38393;52.404;13.532;2022-08-03T06:54:16;8.02;;;4.22;;
52480;SDS011;38393;52.404;13.532;2022-08-03T06:56:42;5.00;;;4.32;;
52480;SDS011;38393;52.404;13.532;2022-08-03T06:59:08;6.70;;;3.88;;
52480;SDS011;38393;52.404;13.532;2022-08-03T07:01:34;4.32;;;3.75;;
52480;SDS011;38393;52.404;13.532;2022-08-03T07:04:00;10.32;;;3.45;;
52480;SDS011;38393;52.404;13.532;2022-08-03T07:06:26;6.72;;;3.38;;
52480;SDS011;38393;52.404;13.532;2022-08-03T07:08:52;4.40;;;3.08;;
52480;SDS011;38393;52.404;13.532;2022-08-03T07:11:17;6.35;;;3.30;;
52480;SDS011;38393;52.404;13.532;2022-08-03T07:13:43;4.32;;;3.30;;
52480;SDS011;38393;52.404;13.532;2022-08-03T07:16:10;9.10;;;3.00;;
52480;SDS011;38393;52.404;13.532;2022-08-03T07:18:37;6.47;;;3.40;;
52480;SDS011;38393;52.404;13.532;2022-08-03T07:21:03;11.02;;;3.28;;
52480;SDS011;38393;52.404;13.532;2022-08-03T07:23:28;6.13;;;2.88;;
52480;SDS011;38393;52.404;13.532;2022-08-03T07:25:54;5.10;;;2.90;;
52480;SDS011;38393;52.404;13.532;2022-08-03T07:28:20;5.00;;;3.00;;
52480;SDS011;38393;52.404;13.532;2022-08-03T07:30:46;3.45;;;2.90;;
52480;SDS011;38393;52.404;13.532;2022-08-03T07:33:12;5.60;;;2.83;;
52480;SDS011;38393;52.404;13.532;2022-08-03T07:35:39;6.85;;;2.75;;
52480;SDS011;38393;52.404;13.532;2022-08-03T07:38:05;5.07;;;2.65;;
52480;SDS011;38393;52.404;13.532;2022-08-03T07:40:31;7.35;;;2.78;;
52480;SDS011;38393;52.404;13.532;2022-08-03T07:42:57;6.53;;;2.90;;
52480;SDS011;38393;52.404;13.532;2022-08-03T07:45:23;8.05;;;2.90;;
52480;SDS011;38393;52.404;13.532;2022-08-03T07:47:50;6.03;;;2.90;;
52480;SDS011;38393;52.404;13.532;2022-08-03T07:50:16;3.70;;;2.50;;
52480;SDS011;38393;52.404;13.532;2022-08-03T07:52:42;9.18;;;2.67;;
52480;SDS011;38393;52.404;13.532;2022-08-03T07:55:23;6.40;;;2.70;;
52480;SDS011;38393;52.404;13.532;2022-08-03T08:00:24;5.65;;;2.40;;
52480;SDS011;38393;52.404;13.532;2022-08-03T08:02:50;5.93;;;2.67;;
52480;SDS011;38393;52.404;13.532;2022-08-03T08:05:16;4.32;;;2.35;;
52480;SDS011;38393;52.404;13.532;2022-08-03T08:07:42;3.92;;;2.25;;
52480;SDS011;38393;52.404;13.532;2022-08-03T08:10:08;5.50;;;2.60;;
52480;SDS011;38393;52.404;13.532;2022-08-03T08:12:34;6.50;;;2.45;;
52480;SDS011;38393;52.404;13.532;2022-08-03T08:15:00;5.30;;;2.53;;
52480;SDS011;38393;52.404;13.532;2022-08-03T08:17:26;9.10;;;2.47;;
52480;SDS011;38393;52.404;13.532;2022-08-03T08:19:52;8.40;;;2.30;;
52480;SDS011;38393;52.404;13.532;2022-08-03T08:22:18;3.15;;;2.15;;
52480;SDS011;38393;52.404;13.532;2022-08-03T08:24:44;5.13;;;2.33;;
52480;SDS011;38393;52.404;13.532;2022-08-03T08:27:12;4.10;;;2.13;;
52480;SDS011;38393;52.404;13.532;2022-08-03T08:29:38;3.97;;;2.20;;
52480;SDS011;38393;52.404;13.532;2022-08-03T08:32:04;3.63;;;1.90;;
52480;SDS011;38393;52.404;13.532;2022-08-03T08:34:30;4.38;;;2.20;;
52480;SDS011;38393;52.404;13.532;2022-08-03T08:36:56;3.08;;;1.98;;
52480;SDS011;38393;52.404;13.532;2022-08-03T08:39:22;3.67;;;2.22;;
52480;SDS011;38393;52.404;13.532;2022-08-03T08:41:51;3.75;;;2.08;;
52480;SDS011;38393;52.404;13.532;2022-08-03T08:44:17;3.28;;;2.28;;
52480;SDS011;38393;52.404;13.532;2022-08-03T08:46:43;4.50;;;1.90;;
52480;SDS011;38393;52.404;13.532;2022-08-03T08:49:10;4.38;;;2.20;;
52480;SDS011;38393;52.404;13.532;2022-08-03T08:51:38;5.05;;;2.10;;
52480;SDS011;38393;52.404;13.532;2022-08-03T08:54:06;4.22;;;1.92;;
52480;SDS011;38393;52.404;13.532;2022-08-03T08:56:32;5.25;;;2.10;;
52480;SDS011;38393;52.404;13.532;2022-08-03T08:58:59;4.95;;;1.90;;
52480;SDS011;38393;52.404;13.532;2022-08-03T09:01:25;5.85;;;2.20;;
52480;SDS011;38393;52.404;13.532;2022-08-03T09:03:51;5.00;;;2.13;;
52480;SDS011;38393;52.404;13.532;2022-08-03T09:06:18;5.97;;;2.28;;
52480;SDS011;38393;52.404;13.532;2022-08-03T09:08:44;4.75;;;2.10;;
52480;SDS011;38393;52.404;13.532;2022-08-03T09:11:10;5.30;;;1.90;;
52480;SDS011;38393;52.404;13.532;2022-08-03T09:13:36;4.13;;;2.10;;
52480;SDS011;38393;52.404;13.532;2022-08-03T09:16:07;3.40;;;2.20;;
52480;SDS011;38393;52.404;13.532;2022-08-03T09:18:33;4.40;;;1.90;;
52480;SDS011;38393;52.404;13.532;2022-08-03T09:21:11;3.13;;;2.30;;
52480;SDS011;38393;52.404;13.532;2022-08-03T09:23:44;3.67;;;2.30;;
52480;SDS011;38393;52.404;13.532;2022-08-03T09:26:11;4.40;;;1.90;;
52480;SDS011;38393;52.404;13.532;2022-08-03T09:28:37;4.43;;;2.05;;
52480;SDS011;38393;52.404;13.532;2022-08-03T09:31:03;4.68;;;1.90;;
52480;SDS011;38393;52.404;13.532;2022-08-03T09:33:29;4.63;;;2.33;;
52480;SDS011;38393;52.404;13.532;2022-08-03T09:35:55;4.20;;;2.10;;
52480;SDS011;38393;52.404;13.532;2022-08-03T09:38:23;2.90;;;2.28;;
52480;SDS011;38393;52.404;13.532;2022-08-03T09:40:52;4.03;;;2.20;;
52480;SDS011;38393;52.404;13.532;2022-08-03T09:43:19;3.00;;;2.10;;
52480;SDS011;38393;52.404;13.532;2022-08-03T09:45:45;4.18;;;2.42;;
52480;SDS011;38393;52.404;13.532;2022-08-03T09:48:24;2.70;;;2.28;;
52480;SDS011;38393;52.404;13.532;2022-08-03T09:50:52;4.53;;;2.10;;
52480;SDS011;38393;52.404;13.532;2022-08-03T09:53:18;3.15;;;2.10;;
52480;SDS011;38393;52.404;13.532;2022-08-03T09:55:54;3.97;;;2.25;;
52480;SDS011;38393;52.404;13.532;2022-08-03T09:58:21;5.28;;;2.40;;
52480;SDS011;38393;52.404;13.532;2022-08-03T10:00:51;4.90;;;2.40;;
52480;SDS011;38393;52.404;13.532;2022-08-03T10:03:17;3.83;;;2.53;;
52480;SDS011;38393;52.404;13.532;2022-08-03T10:05:43;4.90;;;2.70;;
52480;SDS011;38393;52.404;13.532;2022-08-03T10:08:17;4.47;;;2.70;;
52480;SDS011;38393;52.404;13.532;2022-08-03T10:10:43;4.95;;;2.60;;
52480;SDS011;38393;52.404;13.532;2022-08-03T10:13:13;3.08;;;2.60;;
52480;SDS011;38393;52.404;13.532;2022-08-03T10:15:39;2.60;;;2.25;;
52480;SDS011;38393;52.404;13.532;2022-08-03T10:18:06;5.60;;;2.78;;
52480;SDS011;38393;52.404;13.532;2022-08-03T10:20:36;4.47;;;2.28;;
52480;SDS011;38393;52.404;13.532;2022-08-03T10:23:02;7.38;;;2.40;;
52480;SDS011;38393;52.404;13.532;2022-08-03T10:25:30;8.00;;;2.33;;
52480;SDS011;38393;52.404;13.532;2022-08-03T10:27:57;4.28;;;2.28;;
52480;SDS011;38393;52.404;13.532;2022-08-03T10:30:24;4.72;;;2.20;;
52480;SDS011;38393;52.404;13.532;2022-08-03T10:32:56;5.53;;;2.30;;
52480;SDS011;38393;52.404;13.532;2022-08-03T10:35:24;3.03;;;1.95;;
52480;SDS011;38393;52.404;13.532;2022-08-03T10:37:54;3.58;;;2.28;;
52480;SDS011;38393;52.404;13.532;2022-08-03T10:40:21;2.10;;;1.90;;
52480;SDS011;38393;52.404;13.532;2022-08-03T10:42:48;3.83;;;2.10;;
52480;SDS011;38393;52.404;13.532;2022-08-03T10:45:33;2.45;;;2.00;;
52480;SDS011;38393;52.404;13.532;2022-08-03T10:48:00;2.08;;;1.88;;
52480;SDS011;38393;52.404;13.532;2022-08-03T10:50:27;1.67;;;1.50;;
52480;SDS011;38393;52.404;13.532;2022-08-03T10:52:56;2.38;;;1.80;;
52480;SDS011;38393;52.404;13.532;2022-08-03T10:55:36;6.40;;;1.80;;
52480;SDS011;38393;52.404;13.532;2022-08-03T11:01:02;2.25;;;1.50;;
52480;SDS011;38393;52.404;13.532;2022-08-03T11:03:28;5.15;;;1.60;;
52480;SDS011;38393;52.404;13.532;2022-08-03T11:06:13;2.38;;;1.65;;
52480;SDS011;38393;52.404;13.532;2022-08-03T11:08:40;3.63;;;1.80;;
52480;SDS011;38393;52.404;13.532;2022-08-03T11:11:23;14.25;;;2.97;;
52480;SDS011;38393;52.404;13.532;2022-08-03T11:14:11;2.70;;;1.70;;
52480;SDS011;38393;52.404;13.532;2022-08-03T11:16:44;4.50;;;1.70;;
52480;SDS011;38393;52.404;13.532;2022-08-03T11:19:12;2.28;;;1.85;;
52480;SDS011;38393;52.404;13.532;2022-08-03T11:37:31;4.13;;;1.92;;
52480;SDS011;38393;52.404;13.532;2022-08-03T11:39:57;2.17;;;1.90;;
52480;SDS011;38393;52.404;13.532;2022-08-03T11:44:50;3.30;;;2.13;;
52480;SDS011;38393;52.404;13.532;2022-08-03T11:47:17;2.58;;;2.15;;
52480;SDS011;38393;52.404;13.532;2022-08-03T11:49:44;2.95;;;2.17;;
52480;SDS011;38393;52.404;13.532;2022-08-03T11:52:11;2.60;;;1.90;;
52480;SDS011;38393;52.404;13.532;2022-08-03T11:54:37;3.38;;;2.15;;
52480;SDS011;38393;52.404;13.532;2022-08-03T11:57:03;3.58;;;2.10;;
52480;SDS011;38393;52.404;13.532;2022-08-03T11:59:33;3.45;;;2.30;;
52480;SDS011;38393;52.404;13.532;2022-08-03T12:02:05;4.57;;;2.10;;
52480;SDS011;38393;52.404;13.532;2022-08-03T12:04:47;6.18;;;1.90;;
52480;SDS011;38393;52.404;13.532;2022-08-03T12:07:13;6.53;;;2.00;;
52480;SDS011;38393;52.404;13.532;2022-08-03T12:09:41;2.58;;;2.05;;
52480;SDS011;38393;52.404;13.532;2022-08-03T12:12:07;2.80;;;2.00;;
52480;SDS011;38393;52.404;13.532;2022-08-03T12:14:33;2.60;;;2.05;;
52480;SDS011;38393;52.404;13.532;2022-08-03T12:16:59;5.30;;;2.00;;
52480;SDS011;38393;52.404;13.532;2022-08-03T12:19:25;3.05;;;2.10;;
52480;SDS011;38393;52.404;13.532;2022-08-03T12:21:51;4.60;;;1.95;;
52480;SDS011;38393;52.404;13.532;2022-08-03T12:24:17;2.13;;;1.92;;
52480;SDS011;38393;52.404;13.532;2022-08-03T12:26:44;4.53;;;2.10;;
52480;SDS011;38393;52.404;13.532;2022-08-03T12:29:17;3.05;;;2.15;;
52480;SDS011;38393;52.404;13.532;2022-08-03T12:31:43;5.47;;;2.00;;
52480;SDS011;38393;52.404;13.532;2022-08-03T12:34:09;2.25;;;2.00;;
52480;SDS011;38393;52.404;13.532;2022-08-03T12:36:35;7.88;;;2.15;;
52480;SDS011;38393;52.404;13.532;2022-08-03T12:39:06;2.72;;;2.00;;
52480;SDS011;38393;52.404;13.532;2022-08-03T12:41:36;2.72;;;2.30;;
52480;SDS011;38393;52.404;13.532;2022-08-03T12:44:03;3.40;;;2.10;;
52480;SDS011;38393;52.404;13.532;2022-08-03T12:46:31;2.58;;;1.80;;
52480;SDS011;38393;52.404;13.532;2022-08-03T12:48:58;2.47;;;2.03;;
52480;SDS011;38393;52.404;13.532;2022-08-03T12:51:24;2.97;;;2.00;;
52480;SDS011;38393;52.404;13.532;2022-08-03T12:53:54;2.47;;;2.00;;
52480;SDS011;38393;52.404;13.532;2022-08-03T12:56:20;2.63;;;1.90;;
52480;SDS011;38393;52.404;13.532;2022-08-03T12:58:47;2.92;;;1.98;;
52480;SDS011;38393;52.404;13.532;2022-08-03T13:01:14;2.72;;;1.70;;
52480;SDS011;38393;52.404;13.532;2022-08-03T13:03:41;3.10;;;2.10;;
52480;SDS011;38393;52.404;13.532;2022-08-03T13:06:11;2.70;;;1.60;;
52480;SDS011;38393;52.404;13.532;2022-08-03T13:08:37;4.05;;;1.90;;
52480;SDS011;38393;52.404;13.532;2022-08-03T13:13:44;2.55;;;1.90;;
52480;SDS011;38393;52.404;13.532;2022-08-03T13:16:10;2.58;;;1.80;;
52480;SDS011;38393;52.404;13.532;2022-08-03T13:18:36;3.78;;;1.70;;
52480;SDS011;38393;52.404;13.532;2022-08-03T13:21:02;2.10;;;1.73;;
52480;SDS011;38393;52.404;13.532;2022-08-03T13:23:28;2.78;;;1.70;;
52480;SDS011;38393;52.404;13.532;2022-08-03T13:25:54;2.30;;;1.80;;
52480;SDS011;38393;52.404;13.532;2022-08-03T13:28:20;4.53;;;1.77;;
52480;SDS011;38393;52.404;13.532;2022-08-03T13:30:46;2.13;;;1.88;;
52480;SDS011;38393;52.404;13.532;2022-08-03T13:33:12;3.50;;;1.95;;
52480;SDS011;38393;52.404;13.532;2022-08-03T13:35:38;4.43;;;2.28;;
52480;SDS011;38393;52.404;13.532;2022-08-03T13:38:03;4.88;;;2.40;;
52480;SDS011;38393;52.404;13.532;2022-08-03T13:40:29;2.35;;;1.63;;
52480;SDS011;38393;52.404;13.532;2022-08-03T13:42:56;3.42;;;1.90;;
52480;SDS011;38393;52.404;13.532;2022-08-03T13:45:22;2.35;;;1.75;;
52480;SDS011;38393;52.404;13.532;2022-08-03T13:47:48;2.30;;;1.77;;
52480;SDS011;38393;52.404;13.532;2022-08-03T13:50:14;2.90;;;1.77;;
52480;SDS011;38393;52.404;13.532;2022-08-03T13:52:40;3.42;;;1.70;;
52480;SDS011;38393;52.404;13.532;2022-08-03T13:55:06;4.15;;;1.80;;
52480;SDS011;38393;52.404;13.532;2022-08-03T13:57:32;2.17;;;1.80;;
52480;SDS011;38393;52.404;13.532;2022-08-03T13:59:59;3.17;;;1.80;;
52480;SDS011;38393;52.404;13.532;2022-08-03T14:02:25;2.30;;;1.70;;
52480;SDS011;38393;52.404;13.532;2022-08-03T14:04:51;4.20;;;1.80;;
52480;SDS011;38393;52.404;13.532;2022-08-03T14:07:18;3.95;;;1.73;;
52480;SDS011;38393;52.404;13.532;2022-08-03T14:09:44;1.90;;;1.70;;
52480;SDS011;38393;52.404;13.532;2022-08-03T14:12:10;4.18;;;1.60;;
52480;SDS011;38393;52.404;13.532;2022-08-03T14:14:36;1.83;;;1.50;;
52480;SDS011;38393;52.404;13.532;2022-08-03T14:17:02;2.70;;;1.80;;
52480;SDS011;38393;52.404;13.532;2022-08-03T14:19:28;6.50;;;2.03;;
52480;SDS011;38393;52.404;13.532;2022-08-03T14:21:54;4.53;;;1.90;;
52480;SDS011;38393;52.404;13.532;2022-08-03T14:24:20;3.13;;;1.90;;
52480;SDS011;38393;52.404;13.532;2022-08-03T14:26:46;6.13;;;1.65;;
52480;SDS011;38393;52.404;13.532;2022-08-03T14:29:12;3.65;;;1.88;;
52480;SDS011;38393;52.404;13.532;2022-08-03T14:31:38;4.35;;;1.80;;
52480;SDS011;38393;52.404;13.532;2022-08-03T14:34:04;6.15;;;1.90;;
52480;SDS011;38393;52.404;13.532;2022-08-03T14:36:30;4.63;;;1.90;;
52480;SDS011;38393;52.404;13.532;2022-08-03T14:38:56;2.95;;;1.92;;
52480;SDS011;38393;52.404;13.532;2022-08-03T14:41:22;3.75;;;1.75;;
52480;SDS011;38393;52.404;13.532;2022-08-03T14:43:47;2.63;;;1.92;;
52480;SDS011;38393;52.404;13.532;2022-08-03T14:46:13;1.95;;;1.63;;
52480;SDS011;38393;52.404;13.532;2022-08-03T14:48:39;2.03;;;1.63;;
52480;SDS011;38393;52.404;13.532;2022-08-03T14:51:05;3.92;;;1.73;;
52480;SDS011;38393;52.404;13.532;2022-08-03T14:53:32;2.30;;;1.73;;
52480;SDS011;38393;52.404;13.532;2022-08-03T14:55:58;3.55;;;1.80;;
52480;SDS011;38393;52.404;13.532;2022-08-03T14:58:24;2.67;;;1.80;;
52480;SDS011;38393;52.404;13.532;2022-08-03T15:00:51;3.20;;;2.10;;
52480;SDS011;38393;52.404;13.532;2022-08-03T15:03:18;1.75;;;1.65;;
52480;SDS011;38393;52.404;13.532;2022-08-03T15:05:47;1.80;;;1.58;;
52480;SDS011;38393;52.404;13.532;2022-08-03T15:08:13;4.88;;;2.10;;